sensor_id;sensor_type;location;lat;lon;timestamp;pressure;altitude;pressure_sealevel;temperature;humidity
36254;BME280;22291;52.250;21.228;2023-04-04T00:00:32;101131.69;;;-0.13;60.95
36254;BME280;22291;52.250;21.228;2023-04-04T00:03:01;101128.72;;;-0.14;61.37
36254;BME280;22291;52.250;21.228;2023-04-04T00:05:27;101126.91;;;-0.21;61.47
36254;BME280;22291;52.250;21.228;2023-04-04T00:07:53;101128.91;;;-0.25;61.64
36254;BME280;22291;52.250;21.228;2023-04-04T00:10:19;101125.36;;;-0.28;61.74
36254;BME280;22291;52.250;21.228;2023-04-04T00:12:46;101125.78;;;-0.31;61.87
36254;BME280;22291;52.250;21.228;2023-04-04T00:15:12;101127.53;;;-0.34;62.11
36254;BME280;22291;52.250;21.228;2023-04-04T00:17:38;101116.83;;;-0.37;62.09
36254;BME280;22291;52.250;21.228;2023-04-04T00:20:07;101124.21;;;-0.39;62.32
36254;BME280;22291;52.250;21.228;2023-04-04T00:22:33;101117.78;;;-0.41;62.61
36254;BME280;22291;52.250;21.228;2023-04-04T00:25:00;101114.00;;;-0.42;62.70
36254;BME280;22291;52.250;21.228;2023-04-04T00:27:26;101122.19;;;-0.44;62.45
36254;BME280;22291;52.250;21.228;2023-04-04T00:29:53;101118.42;;;-0.45;62.68
36254;BME280;22291;52.250;21.228;2023-04-04T00:32:19;101108.52;;;-0.47;63.09
36254;BME280;22291;52.250;21.228;2023-04-04T00:34:51;101120.98;;;-0.48;63.13
36254;BME280;22291;52.250;21.228;2023-04-04T00:37:18;101120.10;;;-0.51;63.22
36254;BME280;22291;52.250;21.228;2023-04-04T00:39:46;101119.20;;;-0.54;63.18
36254;BME280;22291;52.250;21.228;2023-04-04T00:42:12;101118.39;;;-0.54;63.23
36254;BME280;22291;52.250;21.228;2023-04-04T00:44:38;101117.98;;;-0.58;63.44
36254;BME280;22291;52.250;21.228;2023-04-04T00:47:06;101114.94;;;-0.62;63.43
36254;BME280;22291;52.250;21.228;2023-04-04T00:49:32;101108.95;;;-0.66;63.39
36254;BME280;22291;52.250;21.228;2023-04-04T00:51:59;101105.30;;;-0.72;63.60
36254;BME280;22291;52.250;21.228;2023-04-04T00:54:25;101106.66;;;-0.79;63.81
36254;BME280;22291;52.250;21.228;2023-04-04T00:56:52;101105.89;;;-0.86;63.73
36254;BME280;22291;52.250;21.228;2023-04-04T00:59:21;101108.37;;;-0.91;63.61
36254;BME280;22291;52.250;21.228;2023-04-04T01:01:48;101105.22;;;-0.97;63.81
36254;BME280;22291;52.250;21.228;2023-04-04T01:04:15;101102.70;;;-1.01;64.08
36254;BME280;22291;52.250;21.228;2023-04-04T01:06:42;101101.72;;;-1.07;64.23
36254;BME280;22291;52.250;21.228;2023-04-04T01:09:11;101092.66;;;-1.15;64.52
36254;BME280;22291;52.250;21.228;2023-04-04T01:11:38;101081.27;;;-1.22;64.81
36254;BME280;22291;52.250;21.228;2023-04-04T01:14:05;101081.37;;;-1.26;65.00
36254;BME280;22291;52.250;21.228;2023-04-04T01:16:31;101080.90;;;-1.33;65.24
36254;BME280;22291;52.250;21.228;2023-04-04T01:19:00;101078.27;;;-1.39;65.39
36254;BME280;22291;52.250;21.228;2023-04-04T01:21:28;101074.10;;;-1.44;65.42
36254;BME280;22291;52.250;21.228;2023-04-04T01:24:00;101077.06;;;-1.50;65.66
36254;BME280;22291;52.250;21.228;2023-04-04T01:26:29;101078.41;;;-1.57;65.81
36254;BME280;22291;52.250;21.228;2023-04-04T01:28:57;101074.23;;;-1.62;65.97
36254;BME280;22291;52.250;21.228;2023-04-04T01:31:27;101069.27;;;-1.67;66.15
36254;BME280;22291;52.250;21.228;2023-04-04T01:34:13;101067.23;;;-1.72;66.49
36254;BME280;22291;52.250;21.228;2023-04-04T01:36:58;101063.27;;;-1.79;66.44
36254;BME280;22291;52.250;21.228;2023-04-04T01:39:35;101062.99;;;-1.86;66.69
36254;BME280;22291;52.250;21.228;2023-04-04T01:42:17;101062.80;;;-1.92;66.97
36254;BME280;22291;52.250;21.228;2023-04-04T01:44:45;101064.45;;;-1.97;67.30
36254;BME280;22291;52.250;21.228;2023-04-04T01:47:12;101066.98;;;-2.00;67.65
36254;BME280;22291;52.250;21.228;2023-04-04T01:49:39;101068.44;;;-2.04;67.75
36254;BME280;22291;52.250;21.228;2023-04-04T01:52:06;101066.19;;;-2.07;68.05
36254;BME280;22291;52.250;21.228;2023-04-04T01:54:34;101064.15;;;-2.12;68.16
36254;BME280;22291;52.250;21.228;2023-04-04T01:57:02;101062.94;;;-2.16;68.27
36254;BME280;22291;52.250;21.228;2023-04-04T01:59:28;101068.45;;;-2.17;68.37
36254;BME280;22291;52.250;21.228;2023-04-04T02:01:55;101070.49;;;-2.19;68.31
36254;BME280;22291;52.250;21.228;2023-04-04T02:04:22;101072.73;;;-2.23;68.69
36254;BME280;22291;52.250;21.228;2023-04-04T02:06:48;101074.27;;;-2.24;68.82
36254;BME280;22291;52.250;21.228;2023-04-04T02:09:15;101072.31;;;-2.27;68.89
36254;BME280;22291;52.250;21.228;2023-04-04T02:11:41;101076.20;;;-2.29;69.00
36254;BME280;22291;52.250;21.228;2023-04-04T02:14:07;101073.66;;;-2.33;69.11
36254;BME280;22291;52.250;21.228;2023-04-04T02:16:34;101070.58;;;-2.37;69.12
36254;BME280;22291;52.250;21.228;2023-04-04T02:19:01;101064.39;;;-2.40;69.35
36254;BME280;22291;52.250;21.228;2023-04-04T02:21:27;101063.95;;;-2.44;69.49
36254;BME280;22291;52.250;21.228;2023-04-04T02:23:54;101068.96;;;-2.45;69.51
36254;BME280;22291;52.250;21.228;2023-04-04T02:26:20;101068.55;;;-2.48;69.72
36254;BME280;22291;52.250;21.228;2023-04-04T02:28:47;101065.50;;;-2.52;69.86
36254;BME280;22291;52.250;21.228;2023-04-04T02:31:13;101065.09;;;-2.55;69.84
36254;BME280;22291;52.250;21.228;2023-04-04T02:33:39;101068.14;;;-2.58;70.14
36254;BME280;22291;52.250;21.228;2023-04-04T02:36:06;101072.31;;;-2.60;70.27
36254;BME280;22291;52.250;21.228;2023-04-04T02:38:33;101072.52;;;-2.61;70.47
36254;BME280;22291;52.250;21.228;2023-04-04T02:41:00;101067.94;;;-2.64;70.62
36254;BME280;22291;52.250;21.228;2023-04-04T02:43:26;101070.47;;;-2.66;70.83
36254;BME280;22291;52.250;21.228;2023-04-04T02:45:52;101061.59;;;-2.69;70.73
36254;BME280;22291;52.250;21.228;2023-04-04T02:48:18;101068.41;;;-2.71;70.92
36254;BME280;22291;52.250;21.228;2023-04-04T02:50:45;101063.55;;;-2.74;70.85
36254;BME280;22291;52.250;21.228;2023-04-04T02:53:14;101063.42;;;-2.76;70.91
36254;BME280;22291;52.250;21.228;2023-04-04T02:55:41;101062.50;;;-2.79;71.01
36254;BME280;22291;52.250;21.228;2023-04-04T02:58:07;101066.18;;;-2.80;71.27
36254;BME280;22291;52.250;21.228;2023-04-04T03:00:34;101070.64;;;-2.81;71.40
36254;BME280;22291;52.250;21.228;2023-04-04T03:03:00;101073.20;;;-2.84;71.43
36254;BME280;22291;52.250;21.228;2023-04-04T03:05:26;101073.39;;;-2.85;71.52
36254;BME280;22291;52.250;21.228;2023-04-04T03:07:57;101066.36;;;-2.89;71.75
36254;BME280;22291;52.250;21.228;2023-04-04T03:10:27;101078.59;;;-2.88;71.76
36254;BME280;22291;52.250;21.228;2023-04-04T03:12:57;101080.61;;;-2.90;71.92
36254;BME280;22291;52.250;21.228;2023-04-04T03:15:24;101067.36;;;-2.90;71.96
36254;BME280;22291;52.250;21.228;2023-04-04T03:17:52;101070.21;;;-2.91;72.13
36254;BME280;22291;52.250;21.228;2023-04-04T03:20:19;101072.05;;;-2.92;72.42
36254;BME280;22291;52.250;21.228;2023-04-04T03:22:47;101068.80;;;-2.94;72.51
36254;BME280;22291;52.250;21.228;2023-04-04T03:25:14;101075.61;;;-2.95;72.54
36254;BME280;22291;52.250;21.228;2023-04-04T03:27:42;101068.38;;;-2.97;72.59
36254;BME280;22291;52.250;21.228;2023-04-04T03:30:10;101068.58;;;-2.99;72.53
36254;BME280;22291;52.250;21.228;2023-04-04T03:32:37;101069.78;;;-3.02;72.75
36254;BME280;22291;52.250;21.228;2023-04-04T03:35:06;101069.98;;;-3.03;72.84
36254;BME280;22291;52.250;21.228;2023-04-04T03:37:33;101064.59;;;-3.06;73.03
36254;BME280;22291;52.250;21.228;2023-04-04T03:40:00;101067.95;;;-3.08;73.23
36254;BME280;22291;52.250;21.228;2023-04-04T03:42:27;101064.78;;;-3.07;73.32
36254;BME280;22291;52.250;21.228;2023-04-04T03:44:54;101071.59;;;-3.09;73.21
36254;BME280;22291;52.250;21.228;2023-04-04T03:47:20;101065.18;;;-3.10;73.41
36254;BME280;22291;52.250;21.228;2023-04-04T03:49:48;101065.70;;;-3.11;73.49
36254;BME280;22291;52.250;21.228;2023-04-04T03:52:16;101067.73;;;-3.13;73.54
36254;BME280;22291;52.250;21.228;2023-04-04T03:54:44;101067.31;;;-3.16;73.55
36254;BME280;22291;52.250;21.228;2023-04-04T03:57:11;101063.55;;;-3.18;73.61
36254;BME280;22291;52.250;21.228;2023-04-04T03:59:37;101064.26;;;-3.20;73.70
36254;BME280;22291;52.250;21.228;2023-04-04T04:02:03;101069.23;;;-3.21;73.86
36254;BME280;22291;52.250;21.228;2023-04-04T04:04:29;101072.20;;;-3.20;73.94
36254;BME280;22291;52.250;21.228;2023-04-04T04:06:56;101070.87;;;-3.20;74.07
36254;BME280;22291;52.250;21.228;2023-04-04T04:09:23;101069.55;;;-3.20;74.16
36254;BME280;22291;52.250;21.228;2023-04-04T04:11:50;101070.55;;;-3.21;74.26
36254;BME280;22291;52.250;21.228;2023-04-04T04:14:16;101065.97;;;-3.23;74.16
36254;BME280;22291;52.250;21.228;2023-04-04T04:16:42;101065.65;;;-3.24;74.26
36254;BME280;22291;52.250;21.228;2023-04-04T04:19:10;101053.42;;;-3.25;74.54
36254;BME280;22291;52.250;21.228;2023-04-04T04:21:36;101056.58;;;-3.26;74.68
36254;BME280;22291;52.250;21.228;2023-04-04T04:24:04;101052.09;;;-3.25;74.81
36254;BME280;22291;52.250;21.228;2023-04-04T04:26:30;101054.74;;;-3.25;75.04
36254;BME280;22291;52.250;21.228;2023-04-04T04:28:57;101059.84;;;-3.24;75.18
36254;BME280;22291;52.250;21.228;2023-04-04T04:31:23;101052.61;;;-3.26;75.34
36254;BME280;22291;52.250;21.228;2023-04-04T04:33:49;101055.67;;;-3.22;75.18
36254;BME280;22291;52.250;21.228;2023-04-04T04:36:15;101058.13;;;-3.21;75.19
36254;BME280;22291;52.250;21.228;2023-04-04T04:38:41;101058.64;;;-3.21;75.00
36254;BME280;22291;52.250;21.228;2023-04-04T04:41:07;101060.37;;;-3.17;75.09
36254;BME280;22291;52.250;21.228;2023-04-04T04:43:34;101062.31;;;-3.15;75.33
36254;BME280;22291;52.250;21.228;2023-04-04T04:46:01;101059.47;;;-3.14;75.41
36254;BME280;22291;52.250;21.228;2023-04-04T04:48:28;101059.79;;;-3.13;75.56
36254;BME280;22291;52.250;21.228;2023-04-04T04:50:54;101057.84;;;-3.08;75.80
36254;BME280;22291;52.250;21.228;2023-04-04T04:53:20;101058.17;;;-3.07;75.85
36254;BME280;22291;52.250;21.228;2023-04-04T04:55:46;101053.80;;;-3.04;75.97
36254;BME280;22291;52.250;21.228;2023-04-04T04:58:12;101061.64;;;-3.00;76.01
36254;BME280;22291;52.250;21.228;2023-04-04T05:00:40;101049.85;;;-2.97;76.08
36254;BME280;22291;52.250;21.228;2023-04-04T05:03:06;101050.06;;;-2.92;76.14
36254;BME280;22291;52.250;21.228;2023-04-04T05:05:33;101055.77;;;-2.89;76.26
36254;BME280;22291;52.250;21.228;2023-04-04T05:08:01;101052.02;;;-2.84;76.23
36254;BME280;22291;52.250;21.228;2023-04-04T05:10:29;101058.33;;;-2.78;76.32
36254;BME280;22291;52.250;21.228;2023-04-04T05:12:57;101050.59;;;-2.73;76.33
36254;BME280;22291;52.250;21.228;2023-04-04T05:15:23;101058.55;;;-2.66;76.26
36254;BME280;22291;52.250;21.228;2023-04-04T05:17:57;101056.42;;;-2.60;76.25
36254;BME280;22291;52.250;21.228;2023-04-04T05:20:25;101052.66;;;-2.55;76.32
36254;BME280;22291;52.250;21.228;2023-04-04T05:22:52;101050.01;;;-2.48;76.35
36254;BME280;22291;52.250;21.228;2023-04-04T05:25:19;101051.63;;;-2.40;76.29
36254;BME280;22291;52.250;21.228;2023-04-04T05:27:48;101051.02;;;-2.36;76.38
36254;BME280;22291;52.250;21.228;2023-04-04T05:30:15;101044.19;;;-2.28;76.35
36254;BME280;22291;52.250;21.228;2023-04-04T05:32:44;101042.95;;;-2.18;76.39
36254;BME280;22291;52.250;21.228;2023-04-04T05:35:12;101047.52;;;-2.10;76.29
36254;BME280;22291;52.250;21.228;2023-04-04T05:37:39;101045.49;;;-2.01;76.31
36254;BME280;22291;52.250;21.228;2023-04-04T05:40:08;101044.31;;;-1.89;76.17
36254;BME280;22291;52.250;21.228;2023-04-04T05:42:37;101050.52;;;-1.79;76.15
36254;BME280;22291;52.250;21.228;2023-04-04T05:45:05;101049.09;;;-1.68;76.04
36254;BME280;22291;52.250;21.228;2023-04-04T05:47:33;101047.80;;;-1.53;76.01
36254;BME280;22291;52.250;21.228;2023-04-04T05:49:59;101052.74;;;-1.40;75.82
36254;BME280;22291;52.250;21.228;2023-04-04T05:52:26;101052.77;;;-1.24;75.70
36254;BME280;22291;52.250;21.228;2023-04-04T05:54:53;101055.73;;;-1.07;75.42
36254;BME280;22291;52.250;21.228;2023-04-04T05:57:19;101051.09;;;-0.96;75.21
36254;BME280;22291;52.250;21.228;2023-04-04T05:59:47;101059.84;;;-0.73;75.36
36254;BME280;22291;52.250;21.228;2023-04-04T06:02:13;101057.64;;;-0.51;75.31
36254;BME280;22291;52.250;21.228;2023-04-04T06:04:40;101056.97;;;-0.30;74.77
36254;BME280;22291;52.250;21.228;2023-04-04T06:07:07;101050.27;;;-0.14;74.04
36254;BME280;22291;52.250;21.228;2023-04-04T06:09:34;101048.53;;;0.07;73.76
36254;BME280;22291;52.250;21.228;2023-04-04T06:12:02;101049.94;;;0.28;73.13
36254;BME280;22291;52.250;21.228;2023-04-04T06:14:31;101054.60;;;0.51;72.96
36254;BME280;22291;52.250;21.228;2023-04-04T06:16:58;101050.48;;;0.77;72.84
36254;BME280;22291;52.250;21.228;2023-04-04T06:19:25;101047.41;;;1.01;71.97
36254;BME280;22291;52.250;21.228;2023-04-04T06:21:51;101047.23;;;1.26;72.05
36254;BME280;22291;52.250;21.228;2023-04-04T06:24:18;101046.02;;;1.52;71.28
36254;BME280;22291;52.250;21.228;2023-04-04T06:26:44;101052.72;;;1.76;70.78
36254;BME280;22291;52.250;21.228;2023-04-04T06:29:12;101042.42;;;2.05;70.19
36254;BME280;22291;52.250;21.228;2023-04-04T06:31:38;101049.88;;;2.30;69.22
36254;BME280;22291;52.250;21.228;2023-04-04T06:34:04;101046.69;;;2.56;69.08
36254;BME280;22291;52.250;21.228;2023-04-04T06:36:31;101045.94;;;2.87;69.02
36254;BME280;22291;52.250;21.228;2023-04-04T06:38:57;101043.09;;;3.23;68.15
36254;BME280;22291;52.250;21.228;2023-04-04T06:41:23;101044.41;;;3.54;67.87
36254;BME280;22291;52.250;21.228;2023-04-04T06:43:49;101038.62;;;3.77;66.07
36254;BME280;22291;52.250;21.228;2023-04-04T06:46:16;101031.67;;;3.98;65.33
36254;BME280;22291;52.250;21.228;2023-04-04T06:48:43;101024.47;;;4.20;64.07
36254;BME280;22291;52.250;21.228;2023-04-04T06:51:09;101028.55;;;4.45;64.08
36254;BME280;22291;52.250;21.228;2023-04-04T06:53:39;101031.28;;;4.75;64.03
36254;BME280;22291;52.250;21.228;2023-04-04T06:56:08;101030.83;;;5.10;63.66
36254;BME280;22291;52.250;21.228;2023-04-04T06:58:34;101036.20;;;5.42;63.29
36254;BME280;22291;52.250;21.228;2023-04-04T07:01:02;101036.18;;;5.75;62.29
36254;BME280;22291;52.250;21.228;2023-04-04T07:03:30;101037.17;;;5.96;60.28
36254;BME280;22291;52.250;21.228;2023-04-04T07:05:57;101035.39;;;6.20;60.17
36254;BME280;22291;52.250;21.228;2023-04-04T07:08:24;101039.27;;;6.47;60.10
36254;BME280;22291;52.250;21.228;2023-04-04T07:10:51;101040.19;;;6.81;58.90
36254;BME280;22291;52.250;21.228;2023-04-04T07:13:17;101040.54;;;7.10;58.95
36254;BME280;22291;52.250;21.228;2023-04-04T07:15:46;101039.46;;;7.47;57.89
36254;BME280;22291;52.250;21.228;2023-04-04T07:18:15;101024.64;;;7.75;57.08
36254;BME280;22291;52.250;21.228;2023-04-04T07:20:42;101028.36;;;8.02;56.15
36254;BME280;22291;52.250;21.228;2023-04-04T07:23:10;101025.58;;;8.28;54.77
36254;BME280;22291;52.250;21.228;2023-04-04T07:25:38;101028.00;;;8.27;53.07
36254;BME280;22291;52.250;21.228;2023-04-04T07:28:06;101024.19;;;8.36;52.43
36254;BME280;22291;52.250;21.228;2023-04-04T07:30:32;101024.47;;;8.39;51.61
36254;BME280;22291;52.250;21.228;2023-04-04T07:32:59;101025.26;;;8.37;51.69
36254;BME280;22291;52.250;21.228;2023-04-04T07:35:27;101025.22;;;8.55;51.24
36254;BME280;22291;52.250;21.228;2023-04-04T07:37:54;101021.65;;;8.68;51.11
36254;BME280;22291;52.250;21.228;2023-04-04T07:40:23;101022.11;;;8.80;49.82
36254;BME280;22291;52.250;21.228;2023-04-04T07:42:50;101024.64;;;8.61;49.65
36254;BME280;22291;52.250;21.228;2023-04-04T07:45:20;101025.94;;;8.74;49.54
36254;BME280;22291;52.250;21.228;2023-04-04T07:47:49;101016.75;;;9.17;50.45
36254;BME280;22291;52.250;21.228;2023-04-04T07:50:17;101018.43;;;9.74;49.63
36254;BME280;22291;52.250;21.228;2023-04-04T07:52:50;101023.34;;;9.96;48.13
36254;BME280;22291;52.250;21.228;2023-04-04T07:55:19;101022.31;;;9.63;46.69
36254;BME280;22291;52.250;21.228;2023-04-04T07:57:45;101014.84;;;9.20;46.60
36254;BME280;22291;52.250;21.228;2023-04-04T08:00:15;101013.55;;;9.44;46.94
36254;BME280;22291;52.250;21.228;2023-04-04T08:02:44;101007.31;;;9.49;46.80
36254;BME280;22291;52.250;21.228;2023-04-04T08:05:11;101000.59;;;9.76;45.97
36254;BME280;22291;52.250;21.228;2023-04-04T08:07:38;100999.09;;;9.88;45.90
36254;BME280;22291;52.250;21.228;2023-04-04T08:10:08;101000.09;;;9.68;45.15
36254;BME280;22291;52.250;21.228;2023-04-04T08:12:35;100999.82;;;9.41;45.29
36254;BME280;22291;52.250;21.228;2023-04-04T08:15:01;100985.33;;;10.12;46.23
36254;BME280;22291;52.250;21.228;2023-04-04T08:17:29;100986.40;;;10.75;45.22
36254;BME280;22291;52.250;21.228;2023-04-04T08:19:56;100991.89;;;10.70;44.15
36254;BME280;22291;52.250;21.228;2023-04-04T08:22:22;100995.00;;;10.61;43.17
36254;BME280;22291;52.250;21.228;2023-04-04T08:24:48;100991.89;;;10.27;42.50
36254;BME280;22291;52.250;21.228;2023-04-04T08:27:14;100987.78;;;9.84;42.61
36254;BME280;22291;52.250;21.228;2023-04-04T08:29:41;100986.27;;;9.46;42.60
36254;BME280;22291;52.250;21.228;2023-04-04T08:32:10;100986.50;;;9.20;42.68
36254;BME280;22291;52.250;21.228;2023-04-04T08:34:37;100975.84;;;9.34;42.89
36254;BME280;22291;52.250;21.228;2023-04-04T08:37:05;100968.85;;;9.86;43.76
36254;BME280;22291;52.250;21.228;2023-04-04T08:39:34;100968.12;;;10.48;42.98
36254;BME280;22291;52.250;21.228;2023-04-04T08:42:03;100975.48;;;10.83;41.75
36254;BME280;22291;52.250;21.228;2023-04-04T08:44:33;100985.48;;;10.63;40.82
36254;BME280;22291;52.250;21.228;2023-04-04T08:47:03;100983.63;;;10.18;39.81
36254;BME280;22291;52.250;21.228;2023-04-04T08:49:34;100980.34;;;9.73;39.71
36254;BME280;22291;52.250;21.228;2023-04-04T08:52:04;100979.47;;;9.19;39.64
36254;BME280;22291;52.250;21.228;2023-04-04T08:54:33;100978.50;;;8.70;40.21
36254;BME280;22291;52.250;21.228;2023-04-04T08:57:02;100974.86;;;8.35;40.98
36254;BME280;22291;52.250;21.228;2023-04-04T08:59:31;100976.03;;;8.16;41.71
36254;BME280;22291;52.250;21.228;2023-04-04T09:04:34;100975.22;;;9.13;42.18
36254;BME280;22291;52.250;21.228;2023-04-04T09:07:03;100971.81;;;9.00;41.02
36254;BME280;22291;52.250;21.228;2023-04-04T09:09:33;100972.76;;;8.82;40.66
36254;BME280;22291;52.250;21.228;2023-04-04T09:12:03;100966.84;;;8.75;41.09
36254;BME280;22291;52.250;21.228;2023-04-04T09:14:33;100965.61;;;9.31;41.11
36254;BME280;22291;52.250;21.228;2023-04-04T09:17:02;100966.48;;;9.24;40.50
36254;BME280;22291;52.250;21.228;2023-04-04T09:19:28;100970.70;;;9.03;40.15
36254;BME280;22291;52.250;21.228;2023-04-04T09:21:55;100967.98;;;8.66;39.66
36254;BME280;22291;52.250;21.228;2023-04-04T09:24:22;100972.13;;;8.93;40.63
36254;BME280;22291;52.250;21.228;2023-04-04T09:26:52;100971.27;;;9.64;41.82
36254;BME280;22291;52.250;21.228;2023-04-04T09:29:20;100962.13;;;10.70;41.41
36254;BME280;22291;52.250;21.228;2023-04-04T09:31:48;100978.41;;;10.68;39.30
36254;BME280;22291;52.250;21.228;2023-04-04T09:34:18;100967.14;;;10.17;38.32
36254;BME280;22291;52.250;21.228;2023-04-04T09:36:46;100975.55;;;9.67;38.00
36254;BME280;22291;52.250;21.228;2023-04-04T09:39:13;100970.90;;;9.14;38.20
36254;BME280;22291;52.250;21.228;2023-04-04T09:41:45;100973.59;;;8.77;38.73
36254;BME280;22291;52.250;21.228;2023-04-04T09:44:13;100972.39;;;8.49;38.72
36254;BME280;22291;52.250;21.228;2023-04-04T09:46:40;100967.95;;;8.19;38.71
36254;BME280;22291;52.250;21.228;2023-04-04T09:49:10;100969.00;;;8.23;39.69
36254;BME280;22291;52.250;21.228;2023-04-04T09:51:41;100960.30;;;8.41;39.52
36254;BME280;22291;52.250;21.228;2023-04-04T09:54:21;100968.38;;;8.44;39.49
36254;BME280;22291;52.250;21.228;2023-04-04T09:56:49;100966.05;;;8.17;39.00
36254;BME280;22291;52.250;21.228;2023-04-04T09:59:17;100961.59;;;7.84;39.09
36254;BME280;22291;52.250;21.228;2023-04-04T10:01:45;100976.47;;;7.51;39.38
36254;BME280;22291;52.250;21.228;2023-04-04T10:04:14;100978.37;;;7.17;38.29
36254;BME280;22291;52.250;21.228;2023-04-04T10:06:43;100977.56;;;6.83;38.79
36254;BME280;22291;52.250;21.228;2023-04-04T10:09:09;100971.32;;;6.62;39.31
36254;BME280;22291;52.250;21.228;2023-04-04T10:11:36;100973.44;;;6.44;39.74
36254;BME280;22291;52.250;21.228;2023-04-04T10:14:04;100979.83;;;6.25;40.36
36254;BME280;22291;52.250;21.228;2023-04-04T10:16:32;100973.03;;;6.05;40.66
36254;BME280;22291;52.250;21.228;2023-04-04T10:19:03;100981.20;;;5.85;41.31
36254;BME280;22291;52.250;21.228;2023-04-04T10:21:34;100974.41;;;5.70;41.25
36254;BME280;22291;52.250;21.228;2023-04-04T10:24:03;100975.87;;;5.48;40.91
36254;BME280;22291;52.250;21.228;2023-04-04T10:26:32;100974.24;;;5.41;41.96
36254;BME280;22291;52.250;21.228;2023-04-04T10:28:59;100972.94;;;5.49;42.31
36254;BME280;22291;52.250;21.228;2023-04-04T10:31:26;100975.59;;;5.44;42.65
36254;BME280;22291;52.250;21.228;2023-04-04T10:34:21;100973.95;;;5.40;43.25
36254;BME280;22291;52.250;21.228;2023-04-04T10:37:05;100974.46;;;5.37;43.76
36254;BME280;22291;52.250;21.228;2023-04-04T10:42:37;100969.86;;;5.33;44.16
36254;BME280;22291;52.250;21.228;2023-04-04T10:45:09;100969.34;;;5.33;44.27
36254;BME280;22291;52.250;21.228;2023-04-04T10:47:39;100960.54;;;5.40;44.54
36254;BME280;22291;52.250;21.228;2023-04-04T10:50:09;100954.98;;;5.52;44.25
36254;BME280;22291;52.250;21.228;2023-04-04T10:52:40;100957.38;;;5.51;44.27
36254;BME280;22291;52.250;21.228;2023-04-04T10:55:11;100953.86;;;5.93;45.83
36254;BME280;22291;52.250;21.228;2023-04-04T10:57:46;100948.23;;;7.43;46.68
36254;BME280;22291;52.250;21.228;2023-04-04T11:00:18;100953.08;;;8.79;45.45
36254;BME280;22291;52.250;21.228;2023-04-04T11:05:31;100942.78;;;9.47;41.26
36254;BME280;22291;52.250;21.228;2023-04-04T11:08:04;100943.23;;;9.28;40.75
36254;BME280;22291;52.250;21.228;2023-04-04T11:10:37;100944.80;;;9.02;39.76
36254;BME280;22291;52.250;21.228;2023-04-04T11:13:17;100945.92;;;8.59;39.47
36254;BME280;22291;52.250;21.228;2023-04-04T11:16:10;100953.10;;;8.21;39.66
36254;BME280;22291;52.250;21.228;2023-04-04T11:21:30;100951.74;;;7.23;40.47
36254;BME280;22291;52.250;21.228;2023-04-04T11:26:42;100942.84;;;6.56;41.92
36254;BME280;22291;52.250;21.228;2023-04-04T11:29:18;100947.06;;;6.28;42.67
36254;BME280;22291;52.250;21.228;2023-04-04T11:31:48;100944.54;;;6.04;43.17
36254;BME280;22291;52.250;21.228;2023-04-04T11:34:30;100943.64;;;5.88;43.52
36254;BME280;22291;52.250;21.228;2023-04-04T11:36:58;100938.73;;;5.77;44.01
36254;BME280;22291;52.250;21.228;2023-04-04T11:39:31;100934.20;;;5.80;44.71
36254;BME280;22291;52.250;21.228;2023-04-04T11:42:13;100933.68;;;5.83;44.89
36254;BME280;22291;52.250;21.228;2023-04-04T11:47:24;100949.89;;;5.98;44.42
36254;BME280;22291;52.250;21.228;2023-04-04T11:49:54;100939.89;;;5.94;43.36
36254;BME280;22291;52.250;21.228;2023-04-04T11:52:23;100942.02;;;5.84;43.42
36254;BME280;22291;52.250;21.228;2023-04-04T11:54:52;100936.08;;;5.79;43.36
36254;BME280;22291;52.250;21.228;2023-04-04T11:57:20;100940.02;;;5.67;43.21
36254;BME280;22291;52.250;21.228;2023-04-04T11:59:49;100941.83;;;5.51;43.52
36254;BME280;22291;52.250;21.228;2023-04-04T12:02:25;100943.32;;;5.34;43.95
36254;BME280;22291;52.250;21.228;2023-04-04T12:04:56;100944.52;;;5.13;44.76
36254;BME280;22291;52.250;21.228;2023-04-04T12:07:23;100951.05;;;4.95;45.70
36254;BME280;22291;52.250;21.228;2023-04-04T12:09:52;100942.88;;;4.77;46.32
36254;BME280;22291;52.250;21.228;2023-04-04T12:12:18;100938.97;;;4.63;47.04
36254;BME280;22291;52.250;21.228;2023-04-04T12:14:48;100946.39;;;4.53;47.71
36254;BME280;22291;52.250;21.228;2023-04-04T12:17:16;100933.59;;;4.36;48.11
36254;BME280;22291;52.250;21.228;2023-04-04T12:19:43;100937.20;;;4.22;48.64
36254;BME280;22291;52.250;21.228;2023-04-04T12:22:09;100939.02;;;4.16;49.09
36254;BME280;22291;52.250;21.228;2023-04-04T12:24:37;100937.92;;;4.15;49.68
36254;BME280;22291;52.250;21.228;2023-04-04T12:27:05;100936.69;;;4.22;50.07
36254;BME280;22291;52.250;21.228;2023-04-04T12:29:34;100926.76;;;4.47;50.27
36254;BME280;22291;52.250;21.228;2023-04-04T12:32:04;100924.91;;;4.78;49.79
36254;BME280;22291;52.250;21.228;2023-04-04T12:34:33;100922.22;;;5.08;49.77
36254;BME280;22291;52.250;21.228;2023-04-04T12:37:04;100922.63;;;5.27;49.21
36254;BME280;22291;52.250;21.228;2023-04-04T12:39:39;100917.64;;;5.46;48.85
36254;BME280;22291;52.250;21.228;2023-04-04T12:42:23;100920.07;;;5.47;47.71
36254;BME280;22291;52.250;21.228;2023-04-04T12:44:52;100915.70;;;5.36;47.34
36254;BME280;22291;52.250;21.228;2023-04-04T12:47:20;100912.41;;;5.23;47.43
36254;BME280;22291;52.250;21.228;2023-04-04T12:49:52;100913.42;;;5.17;47.71
36254;BME280;22291;52.250;21.228;2023-04-04T12:52:27;100913.95;;;5.14;47.42
36254;BME280;22291;52.250;21.228;2023-04-04T12:55:07;100913.09;;;5.06;47.30
36254;BME280;22291;52.250;21.228;2023-04-04T12:57:37;100919.13;;;4.91;47.17
36254;BME280;22291;52.250;21.228;2023-04-04T13:00:06;100930.22;;;4.73;47.81
36254;BME280;22291;52.250;21.228;2023-04-04T13:02:36;100924.13;;;4.53;48.47
36254;BME280;22291;52.250;21.228;2023-04-04T13:05:04;100922.63;;;4.37;49.06
36254;BME280;22291;52.250;21.228;2023-04-04T13:07:35;100915.47;;;4.18;49.28